sensor_id;sensor_type;location;lat;lon;timestamp;P1;durP1;ratioP1;P2;durP2;ratioP2
48203;SDS011;33994;50.998;5.864;2023-04-29T00:00:02;35.58;;;18.27;;
48203;SDS011;33994;50.998;5.864;2023-04-29T00:03:06;32.97;;;17.45;;
48203;SDS011;33994;50.998;5.864;2023-04-29T00:06:10;35.15;;;17.70;;
48203;SDS011;33994;50.998;5.864;2023-04-29T00:09:13;36.90;;;18.52;;
48203;SDS011;33994;50.998;5.864;2023-04-29T00:12:16;34.72;;;17.38;;
48203;SDS011;33994;50.998;5.864;2023-04-29T00:15:20;36.97;;;19.10;;
48203;SDS011;33994;50.998;5.864;2023-04-29T00:18:23;37.10;;;18.48;;
48203;SDS011;33994;50.998;5.864;2023-04-29T00:21:27;41.28;;;20.35;;
48203;SDS011;33994;50.998;5.864;2023-04-29T00:24:30;42.17;;;19.65;;
48203;SDS011;33994;50.998;5.864;2023-04-29T00:27:34;42.15;;;20.15;;
48203;SDS011;33994;50.998;5.864;2023-04-29T00:30:37;42.65;;;20.00;;
48203;SDS011;33994;50.998;5.864;2023-04-29T00:33:40;42.63;;;20.65;;
48203;SDS011;33994;50.998;5.864;2023-04-29T00:36:45;39.92;;;19.30;;
48203;SDS011;33994;50.998;5.864;2023-04-29T00:39:48;42.78;;;21.35;;
48203;SDS011;33994;50.998;5.864;2023-04-29T00:42:51;43.53;;;21.88;;
48203;SDS011;33994;50.998;5.864;2023-04-29T00:45:54;42.65;;;20.95;;
48203;SDS011;33994;50.998;5.864;2023-04-29T00:48:58;43.05;;;21.48;;
48203;SDS011;33994;50.998;5.864;2023-04-29T00:52:02;46.10;;;24.52;;
48203;SDS011;33994;50.998;5.864;2023-04-29T00:55:06;45.72;;;21.63;;
48203;SDS011;33994;50.998;5.864;2023-04-29T00:58:10;47.88;;;23.83;;
48203;SDS011;33994;50.998;5.864;2023-04-29T01:01:13;48.17;;;25.13;;
48203;SDS011;33994;50.998;5.864;2023-04-29T01:04:16;51.22;;;24.30;;
48203;SDS011;33994;50.998;5.864;2023-04-29T01:07:22;49.78;;;25.88;;
48203;SDS011;33994;50.998;5.864;2023-04-29T01:10:34;53.28;;;26.45;;
48203;SDS011;33994;50.998;5.864;2023-04-29T01:13:44;52.25;;;25.80;;
48203;SDS011;33994;50.998;5.864;2023-04-29T01:16:51;52.35;;;27.60;;
48203;SDS011;33994;50.998;5.864;2023-04-29T01:20:01;52.95;;;25.50;;
48203;SDS011;33994;50.998;5.864;2023-04-29T01:23:07;51.35;;;26.45;;
48203;SDS011;33994;50.998;5.864;2023-04-29T01:26:11;48.55;;;27.33;;
48203;SDS011;33994;50.998;5.864;2023-04-29T01:29:18;51.13;;;24.40;;
48203;SDS011;33994;50.998;5.864;2023-04-29T01:32:25;51.03;;;27.77;;
48203;SDS011;33994;50.998;5.864;2023-04-29T01:35:39;62.15;;;31.63;;
48203;SDS011;33994;50.998;5.864;2023-04-29T01:38:52;61.67;;;29.95;;
48203;SDS011;33994;50.998;5.864;2023-04-29T01:42:04;66.55;;;30.85;;
48203;SDS011;33994;50.998;5.864;2023-04-29T01:45:14;63.38;;;32.28;;
48203;SDS011;33994;50.998;5.864;2023-04-29T01:48:18;61.78;;;31.55;;
48203;SDS011;33994;50.998;5.864;2023-04-29T01:51:22;62.90;;;30.25;;
48203;SDS011;33994;50.998;5.864;2023-04-29T01:54:25;56.92;;;29.25;;
48203;SDS011;33994;50.998;5.864;2023-04-29T01:57:29;76.72;;;34.58;;
48203;SDS011;33994;50.998;5.864;2023-04-29T02:00:33;72.22;;;33.65;;
48203;SDS011;33994;50.998;5.864;2023-04-29T02:03:36;70.20;;;32.50;;
48203;SDS011;33994;50.998;5.864;2023-04-29T02:06:39;68.78;;;34.15;;
48203;SDS011;33994;50.998;5.864;2023-04-29T02:09:42;66.07;;;32.95;;
48203;SDS011;33994;50.998;5.864;2023-04-29T02:12:47;63.60;;;32.10;;
48203;SDS011;33994;50.998;5.864;2023-04-29T02:15:50;62.65;;;30.15;;
48203;SDS011;33994;50.998;5.864;2023-04-29T02:18:54;64.32;;;30.27;;
48203;SDS011;33994;50.998;5.864;2023-04-29T02:21:57;68.05;;;31.75;;
48203;SDS011;33994;50.998;5.864;2023-04-29T02:25:00;62.58;;;29.63;;
48203;SDS011;33994;50.998;5.864;2023-04-29T02:28:05;67.53;;;31.15;;
48203;SDS011;33994;50.998;5.864;2023-04-29T02:31:08;64.25;;;29.42;;
48203;SDS011;33994;50.998;5.864;2023-04-29T02:34:11;61.40;;;30.67;;
48203;SDS011;33994;50.998;5.864;2023-04-29T02:37:14;71.15;;;32.22;;
48203;SDS011;33994;50.998;5.864;2023-04-29T02:40:17;61.97;;;29.45;;
48203;SDS011;33994;50.998;5.864;2023-04-29T02:43:22;64.43;;;30.92;;
48203;SDS011;33994;50.998;5.864;2023-04-29T02:46:25;63.03;;;30.48;;
48203;SDS011;33994;50.998;5.864;2023-04-29T02:49:28;73.15;;;33.40;;
48203;SDS011;33994;50.998;5.864;2023-04-29T02:52:31;71.57;;;34.90;;
48203;SDS011;33994;50.998;5.864;2023-04-29T02:55:34;73.43;;;33.92;;
48203;SDS011;33994;50.998;5.864;2023-04-29T02:58:39;79.35;;;33.88;;
48203;SDS011;33994;50.998;5.864;2023-04-29T03:01:42;78.82;;;35.40;;
48203;SDS011;33994;50.998;5.864;2023-04-29T03:04:45;80.68;;;35.38;;
48203;SDS011;33994;50.998;5.864;2023-04-29T03:07:48;79.07;;;37.83;;
48203;SDS011;33994;50.998;5.864;2023-04-29T03:10:51;81.03;;;37.03;;
48203;SDS011;33994;50.998;5.864;2023-04-29T03:13:56;80.45;;;37.50;;
48203;SDS011;33994;50.998;5.864;2023-04-29T03:16:59;76.30;;;36.50;;
48203;SDS011;33994;50.998;5.864;2023-04-29T03:20:02;77.13;;;37.40;;
48203;SDS011;33994;50.998;5.864;2023-04-29T03:23:06;71.95;;;36.00;;
48203;SDS011;33994;50.998;5.864;2023-04-29T03:26:10;76.10;;;36.63;;
48203;SDS011;33994;50.998;5.864;2023-04-29T03:29:14;70.80;;;34.03;;
48203;SDS011;33994;50.998;5.864;2023-04-29T03:32:17;68.95;;;33.08;;
48203;SDS011;33994;50.998;5.864;2023-04-29T03:35:20;66.85;;;31.70;;
48203;SDS011;33994;50.998;5.864;2023-04-29T03:38:24;67.95;;;32.78;;
48203;SDS011;33994;50.998;5.864;2023-04-29T03:41:27;71.47;;;32.05;;
48203;SDS011;33994;50.998;5.864;2023-04-29T03:44:31;70.47;;;33.15;;
48203;SDS011;33994;50.998;5.864;2023-04-29T03:47:34;69.30;;;31.77;;
48203;SDS011;33994;50.998;5.864;2023-04-29T03:50:38;65.75;;;29.88;;
48203;SDS011;33994;50.998;5.864;2023-04-29T03:53:41;57.38;;;28.20;;
48203;SDS011;33994;50.998;5.864;2023-04-29T03:56:44;49.78;;;25.60;;
48203;SDS011;33994;50.998;5.864;2023-04-29T03:59:49;48.45;;;25.08;;
48203;SDS011;33994;50.998;5.864;2023-04-29T04:02:52;49.97;;;23.90;;
48203;SDS011;33994;50.998;5.864;2023-04-29T04:05:55;44.88;;;21.95;;
48203;SDS011;33994;50.998;5.864;2023-04-29T04:08:58;41.67;;;21.75;;
48203;SDS011;33994;50.998;5.864;2023-04-29T04:12:01;44.40;;;21.92;;
48203;SDS011;33994;50.998;5.864;2023-04-29T04:15:06;43.00;;;21.52;;
48203;SDS011;33994;50.998;5.864;2023-04-29T04:18:10;47.97;;;21.95;;
48203;SDS011;33994;50.998;5.864;2023-04-29T04:21:13;45.80;;;20.77;;
48203;SDS011;33994;50.998;5.864;2023-04-29T04:24:16;48.03;;;21.88;;
48203;SDS011;33994;50.998;5.864;2023-04-29T04:27:19;46.45;;;20.23;;
48203;SDS011;33994;50.998;5.864;2023-04-29T04:30:23;54.72;;;22.15;;
48203;SDS011;33994;50.998;5.864;2023-04-29T04:33:27;49.88;;;22.30;;
48203;SDS011;33994;50.998;5.864;2023-04-29T04:36:30;46.10;;;22.77;;
48203;SDS011;33994;50.998;5.864;2023-04-29T04:39:33;51.08;;;22.42;;
48203;SDS011;33994;50.998;5.864;2023-04-29T04:42:36;55.08;;;23.90;;
48203;SDS011;33994;50.998;5.864;2023-04-29T04:45:40;47.90;;;23.58;;
48203;SDS011;33994;50.998;5.864;2023-04-29T04:48:43;56.13;;;23.88;;
48203;SDS011;33994;50.998;5.864;2023-04-29T04:51:47;53.08;;;23.55;;
48203;SDS011;33994;50.998;5.864;2023-04-29T04:54:50;52.92;;;25.15;;
48203;SDS011;33994;50.998;5.864;2023-04-29T04:57:53;49.20;;;24.50;;
48203;SDS011;33994;50.998;5.864;2023-04-29T05:00:57;49.08;;;23.58;;
48203;SDS011;33994;50.998;5.864;2023-04-29T05:04:01;50.22;;;23.23;;
48203;SDS011;33994;50.998;5.864;2023-04-29T05:07:04;52.65;;;25.25;;
48203;SDS011;33994;50.998;5.864;2023-04-29T05:10:07;53.17;;;26.25;;
48203;SDS011;33994;50.998;5.864;2023-04-29T05:13:12;49.53;;;24.83;;
48203;SDS011;33994;50.998;5.864;2023-04-29T05:16:16;49.80;;;24.10;;
48203;SDS011;33994;50.998;5.864;2023-04-29T05:19:19;50.22;;;24.88;;
48203;SDS011;33994;50.998;5.864;2023-04-29T05:22:22;56.58;;;26.00;;
48203;SDS011;33994;50.998;5.864;2023-04-29T05:25:26;48.50;;;24.80;;
48203;SDS011;33994;50.998;5.864;2023-04-29T05:28:29;48.85;;;24.75;;
48203;SDS011;33994;50.998;5.864;2023-04-29T05:31:34;49.30;;;24.63;;
48203;SDS011;33994;50.998;5.864;2023-04-29T05:34:37;53.05;;;24.40;;
48203;SDS011;33994;50.998;5.864;2023-04-29T05:37:40;50.17;;;23.50;;
48203;SDS011;33994;50.998;5.864;2023-04-29T05:40:43;48.28;;;24.55;;
48203;SDS011;33994;50.998;5.864;2023-04-29T05:43:46;52.40;;;25.35;;
48203;SDS011;33994;50.998;5.864;2023-04-29T05:46:51;51.15;;;25.38;;
48203;SDS011;33994;50.998;5.864;2023-04-29T05:49:54;47.97;;;23.45;;
48203;SDS011;33994;50.998;5.864;2023-04-29T05:52:57;56.85;;;25.05;;
48203;SDS011;33994;50.998;5.864;2023-04-29T05:56:01;53.08;;;25.73;;
48203;SDS011;33994;50.998;5.864;2023-04-29T05:59:04;52.42;;;25.52;;
48203;SDS011;33994;50.998;5.864;2023-04-29T06:02:08;53.80;;;24.05;;
48203;SDS011;33994;50.998;5.864;2023-04-29T06:05:12;46.33;;;21.63;;
48203;SDS011;33994;50.998;5.864;2023-04-29T06:08:15;50.65;;;24.23;;
48203;SDS011;33994;50.998;5.864;2023-04-29T06:11:18;51.67;;;22.88;;
48203;SDS011;33994;50.998;5.864;2023-04-29T06:14:21;46.08;;;22.48;;
48203;SDS011;33994;50.998;5.864;2023-04-29T06:17:26;49.60;;;23.60;;
48203;SDS011;33994;50.998;5.864;2023-04-29T06:20:29;49.10;;;22.00;;
48203;SDS011;33994;50.998;5.864;2023-04-29T06:23:32;40.60;;;18.92;;
48203;SDS011;33994;50.998;5.864;2023-04-29T06:26:35;42.78;;;19.42;;
48203;SDS011;33994;50.998;5.864;2023-04-29T06:29:39;38.92;;;19.15;;
48203;SDS011;33994;50.998;5.864;2023-04-29T06:32:43;36.97;;;19.38;;
48203;SDS011;33994;50.998;5.864;2023-04-29T06:35:46;36.05;;;19.52;;
48203;SDS011;33994;50.998;5.864;2023-04-29T06:38:49;37.65;;;17.48;;
48203;SDS011;33994;50.998;5.864;2023-04-29T06:41:53;33.90;;;17.55;;
48203;SDS011;33994;50.998;5.864;2023-04-29T06:44:56;33.67;;;16.75;;
48203;SDS011;33994;50.998;5.864;2023-04-29T06:48:00;34.35;;;18.15;;
48203;SDS011;33994;50.998;5.864;2023-04-29T06:51:03;34.67;;;17.20;;
48203;SDS011;33994;50.998;5.864;2023-04-29T06:54:07;29.65;;;15.52;;
48203;SDS011;33994;50.998;5.864;2023-04-29T06:57:10;30.88;;;16.65;;
48203;SDS011;33994;50.998;5.864;2023-04-29T07:00:13;30.92;;;15.48;;
48203;SDS011;33994;50.998;5.864;2023-04-29T07:03:18;31.27;;;17.20;;
48203;SDS011;33994;50.998;5.864;2023-04-29T07:06:21;33.85;;;16.55;;
48203;SDS011;33994;50.998;5.864;2023-04-29T07:09:24;32.42;;;17.15;;
48203;SDS011;33994;50.998;5.864;2023-04-29T07:12:27;35.90;;;17.67;;
48203;SDS011;33994;50.998;5.864;2023-04-29T07:15:32;31.20;;;17.02;;
48203;SDS011;33994;50.998;5.864;2023-04-29T07:18:37;30.17;;;16.45;;
48203;SDS011;33994;50.998;5.864;2023-04-29T07:21:40;33.38;;;16.83;;
48203;SDS011;33994;50.998;5.864;2023-04-29T07:24:43;36.80;;;17.65;;
48203;SDS011;33994;50.998;5.864;2023-04-29T07:27:46;33.00;;;17.17;;
48203;SDS011;33994;50.998;5.864;2023-04-29T07:30:49;25.65;;;14.70;;
48203;SDS011;33994;50.998;5.864;2023-04-29T07:33:54;32.78;;;16.77;;
48203;SDS011;33994;50.998;5.864;2023-04-29T07:36:57;40.53;;;18.10;;
48203;SDS011;33994;50.998;5.864;2023-04-29T07:40:00;34.17;;;17.63;;
48203;SDS011;33994;50.998;5.864;2023-04-29T07:43:03;31.20;;;17.02;;
48203;SDS011;33994;50.998;5.864;2023-04-29T07:46:06;35.65;;;16.52;;
48203;SDS011;33994;50.998;5.864;2023-04-29T07:49:11;34.35;;;16.15;;
48203;SDS011;33994;50.998;5.864;2023-04-29T07:52:14;33.50;;;17.15;;
48203;SDS011;33994;50.998;5.864;2023-04-29T07:55:17;33.33;;;17.63;;
48203;SDS011;33994;50.998;5.864;2023-04-29T07:58:20;32.95;;;18.75;;
48203;SDS011;33994;50.998;5.864;2023-04-29T08:01:24;33.78;;;17.65;;
48203;SDS011;33994;50.998;5.864;2023-04-29T08:04:28;36.08;;;18.98;;
48203;SDS011;33994;50.998;5.864;2023-04-29T08:07:32;36.10;;;17.77;;
48203;SDS011;33994;50.998;5.864;2023-04-29T08:10:36;36.97;;;18.17;;
48203;SDS011;33994;50.998;5.864;2023-04-29T08:13:39;37.53;;;17.27;;
48203;SDS011;33994;50.998;5.864;2023-04-29T08:16:43;28.10;;;16.15;;
48203;SDS011;33994;50.998;5.864;2023-04-29T08:19:47;38.53;;;16.98;;
48203;SDS011;33994;50.998;5.864;2023-04-29T08:22:50;39.13;;;18.30;;
48203;SDS011;33994;50.998;5.864;2023-04-29T08:25:54;35.78;;;18.38;;
48203;SDS011;33994;50.998;5.864;2023-04-29T08:28:57;34.10;;;16.98;;
48203;SDS011;33994;50.998;5.864;2023-04-29T08:32:00;30.90;;;15.80;;
48203;SDS011;33994;50.998;5.864;2023-04-29T08:35:05;37.67;;;17.33;;
48203;SDS011;33994;50.998;5.864;2023-04-29T08:38:09;33.97;;;16.10;;
48203;SDS011;33994;50.998;5.864;2023-04-29T08:41:12;30.30;;;16.15;;
48203;SDS011;33994;50.998;5.864;2023-04-29T08:44:15;34.65;;;16.25;;
48203;SDS011;33994;50.998;5.864;2023-04-29T08:47:18;30.70;;;16.20;;
48203;SDS011;33994;50.998;5.864;2023-04-29T08:50:23;30.33;;;16.08;;
48203;SDS011;33994;50.998;5.864;2023-04-29T08:53:26;27.25;;;16.00;;
48203;SDS011;33994;50.998;5.864;2023-04-29T08:56:30;33.33;;;17.23;;
48203;SDS011;33994;50.998;5.864;2023-04-29T08:59:33;29.90;;;17.10;;
48203;SDS011;33994;50.998;5.864;2023-04-29T09:02:38;33.45;;;16.88;;
48203;SDS011;33994;50.998;5.864;2023-04-29T09:05:48;32.22;;;16.30;;
48203;SDS011;33994;50.998;5.864;2023-04-29T09:11:58;28.85;;;15.35;;
48203;SDS011;33994;50.998;5.864;2023-04-29T09:15:01;29.40;;;15.52;;
48203;SDS011;33994;50.998;5.864;2023-04-29T09:18:04;28.40;;;16.13;;
48203;SDS011;33994;50.998;5.864;2023-04-29T09:21:13;28.75;;;16.05;;
48203;SDS011;33994;50.998;5.864;2023-04-29T09:24:17;27.35;;;15.35;;
48203;SDS011;33994;50.998;5.864;2023-04-29T09:27:27;29.70;;;15.85;;
48203;SDS011;33994;50.998;5.864;2023-04-29T09:30:30;30.95;;;15.00;;
48203;SDS011;33994;50.998;5.864;2023-04-29T09:33:48;25.95;;;14.05;;
48203;SDS011;33994;50.998;5.864;2023-04-29T09:39:56;29.27;;;14.10;;
48203;SDS011;33994;50.998;5.864;2023-04-29T09:42:59;25.58;;;14.30;;
48203;SDS011;33994;50.998;5.864;2023-04-29T09:46:03;24.58;;;14.90;;
48203;SDS011;33994;50.998;5.864;2023-04-29T09:49:20;22.23;;;12.73;;
48203;SDS011;33994;50.998;5.864;2023-04-29T09:52:25;23.08;;;13.50;;
48203;SDS011;33994;50.998;5.864;2023-04-29T09:55:56;27.00;;;15.02;;
48203;SDS011;33994;50.998;5.864;2023-04-29T09:59:06;26.15;;;15.18;;
48203;SDS011;33994;50.998;5.864;2023-04-29T10:02:12;21.48;;;12.85;;
48203;SDS011;33994;50.998;5.864;2023-04-29T10:05:16;22.50;;;14.13;;
48203;SDS011;33994;50.998;5.864;2023-04-29T10:08:21;25.55;;;13.98;;
48203;SDS011;33994;50.998;5.864;2023-04-29T10:11:25;21.25;;;13.13;;
48203;SDS011;33994;50.998;5.864;2023-04-29T10:14:28;21.08;;;13.15;;
48203;SDS011;33994;50.998;5.864;2023-04-29T10:17:35;25.52;;;14.07;;
48203;SDS011;33994;50.998;5.864;2023-04-29T10:20:45;26.65;;;14.57;;
48203;SDS011;33994;50.998;5.864;2023-04-29T10:23:50;25.65;;;15.13;;
48203;SDS011;33994;50.998;5.864;2023-04-29T10:26:55;28.23;;;15.45;;
48203;SDS011;33994;50.998;5.864;2023-04-29T10:29:59;30.27;;;15.98;;
48203;SDS011;33994;50.998;5.864;2023-04-29T10:33:03;29.52;;;15.65;;
48203;SDS011;33994;50.998;5.864;2023-04-29T10:36:09;30.27;;;16.33;;
48203;SDS011;33994;50.998;5.864;2023-04-29T10:39:23;28.67;;;17.05;;
48203;SDS011;33994;50.998;5.864;2023-04-29T10:42:36;29.92;;;15.85;;
48203;SDS011;33994;50.998;5.864;2023-04-29T10:45:45;28.65;;;17.23;;
48203;SDS011;33994;50.998;5.864;2023-04-29T10:48:49;27.25;;;17.73;;
48203;SDS011;33994;50.998;5.864;2023-04-29T10:52:02;33.53;;;19.02;;
48203;SDS011;33994;50.998;5.864;2023-04-29T10:55:07;28.92;;;16.80;;
48203;SDS011;33994;50.998;5.864;2023-04-29T11:01:46;30.50;;;17.65;;
48203;SDS011;33994;50.998;5.864;2023-04-29T11:05:06;30.50;;;17.42;;
48203;SDS011;33994;50.998;5.864;2023-04-29T11:08:10;30.42;;;18.25;;
48203;SDS011;33994;50.998;5.864;2023-04-29T11:11:14;31.65;;;18.00;;
48203;SDS011;33994;50.998;5.864;2023-04-29T11:14:20;33.17;;;18.17;;
48203;SDS011;33994;50.998;5.864;2023-04-29T11:17:25;30.33;;;18.20;;
48203;SDS011;33994;50.998;5.864;2023-04-29T11:20:28;31.85;;;17.83;;
48203;SDS011;33994;50.998;5.864;2023-04-29T11:23:32;31.13;;;19.20;;
48203;SDS011;33994;50.998;5.864;2023-04-29T11:26:36;34.10;;;19.27;;
48203;SDS011;33994;50.998;5.864;2023-04-29T11:29:40;36.03;;;18.23;;
48203;SDS011;33994;50.998;5.864;2023-04-29T11:32:43;30.63;;;18.20;;
48203;SDS011;33994;50.998;5.864;2023-04-29T11:35:46;31.88;;;18.80;;
48203;SDS011;33994;50.998;5.864;2023-04-29T11:38:49;29.35;;;18.33;;
48203;SDS011;33994;50.998;5.864;2023-04-29T11:42:02;35.95;;;19.30;;
48203;SDS011;33994;50.998;5.864;2023-04-29T11:45:06;30.42;;;18.40;;
48203;SDS011;33994;50.998;5.864;2023-04-29T11:48:15;33.17;;;18.27;;
48203;SDS011;33994;50.998;5.864;2023-04-29T11:51:19;30.83;;;17.98;;
48203;SDS011;33994;50.998;5.864;2023-04-29T11:54:24;32.28;;;17.65;;
48203;SDS011;33994;50.998;5.864;2023-04-29T11:57:28;35.17;;;18.75;;
48203;SDS011;33994;50.998;5.864;2023-04-29T12:00:32;31.67;;;19.02;;
48203;SDS011;33994;50.998;5.864;2023-04-29T12:03:35;32.10;;;18.38;;
48203;SDS011;33994;50.998;5.864;2023-04-29T12:06:38;29.58;;;18.45;;
48203;SDS011;33994;50.998;5.864;2023-04-29T12:09:41;24.63;;;15.75;;
48203;SDS011;33994;50.998;5.864;2023-04-29T12:12:45;29.95;;;18.65;;
48203;SDS011;33994;50.998;5.864;2023-04-29T12:15:50;31.15;;;18.33;;
48203;SDS011;33994;50.998;5.864;2023-04-29T12:18:54;30.52;;;18.55;;
48203;SDS011;33994;50.998;5.864;2023-04-29T12:21:57;32.17;;;17.48;;
48203;SDS011;33994;50.998;5.864;2023-04-29T12:25:01;30.58;;;17.77;;
48203;SDS011;33994;50.998;5.864;2023-04-29T12:28:06;28.95;;;17.30;;
48203;SDS011;33994;50.998;5.864;2023-04-29T12:31:14;32.38;;;17.95;;
48203;SDS011;33994;50.998;5.864;2023-04-29T12:34:23;26.90;;;16.17;;
48203;SDS011;33994;50.998;5.864;2023-04-29T12:37:27;32.45;;;18.13;;
48203;SDS011;33994;50.998;5.864;2023-04-29T12:40:30;29.52;;;18.17;;
48203;SDS011;33994;50.998;5.864;2023-04-29T12:43:35;30.83;;;17.52;;
48203;SDS011;33994;50.998;5.864;2023-04-29T12:46:39;27.75;;;17.20;;
48203;SDS011;33994;50.998;5.864;2023-04-29T12:49:43;26.27;;;17.30;;
48203;SDS011;33994;50.998;5.864;2023-04-29T12:52:48;25.98;;;16.20;;
48203;SDS011;33994;50.998;5.864;2023-04-29T12:55:51;27.50;;;17.65;;
48203;SDS011;33994;50.998;5.864;2023-04-29T12:59:02;25.80;;;16.35;;
48203;SDS011;33994;50.998;5.864;2023-04-29T13:02:07;27.63;;;17.02;;
48203;SDS011;33994;50.998;5.864;2023-04-29T13:05:10;28.13;;;17.63;;
48203;SDS011;33994;50.998;5.864;2023-04-29T13:08:13;24.98;;;15.32;;
48203;SDS011;33994;50.998;5.864;2023-04-29T13:11:16;26.15;;;14.70;;
48203;SDS011;33994;50.998;5.864;2023-04-29T13:14:21;23.50;;;14.20;;
48203;SDS011;33994;50.998;5.864;2023-04-29T13:17:24;25.83;;;14.38;;
48203;SDS011;33994;50.998;5.864;2023-04-29T13:20:27;23.67;;;14.98;;
48203;SDS011;33994;50.998;5.864;2023-04-29T13:23:30;28.33;;;17.73;;
48203;SDS011;33994;50.998;5.864;2023-04-29T13:26:33;20.70;;;13.90;;
48203;SDS011;33994;50.998;5.864;2023-04-29T13:29:37;24.17;;;14.10;;
48203;SDS011;33994;50.998;5.864;2023-04-29T13:32:40;25.05;;;14.57;;
48203;SDS011;33994;50.998;5.864;2023-04-29T13:35:44;18.00;;;11.95;;
48203;SDS011;33994;50.998;5.864;2023-04-29T13:38:47;18.52;;;12.63;;
48203;SDS011;33994;50.998;5.864;2023-04-29T13:41:50;21.38;;;13.20;;
48203;SDS011;33994;50.998;5.864;2023-04-29T13:44:55;15.05;;;10.52;;
48203;SDS011;33994;50.998;5.864;2023-04-29T13:47:58;16.65;;;11.38;;
48203;SDS011;33994;50.998;5.864;2023-04-29T13:51:01;18.23;;;11.25;;
48203;SDS011;33994;50.998;5.864;2023-04-29T13:54:04;18.05;;;11.40;;
48203;SDS011;33994;50.998;5.864;2023-04-29T13:57:08;18.88;;;11.93;;
48203;SDS011;33994;50.998;5.864;2023-04-29T14:00:13;19.30;;;10.68;;
48203;SDS011;33994;50.998;5.864;2023-04-29T14:03:17;18.75;;;11.38;;
48203;SDS011;33994;50.998;5.864;2023-04-29T14:06:20;17.65;;;12.05;;
48203;SDS011;33994;50.998;5.864;2023-04-29T14:09:24;18.75;;;12.68;;
48203;SDS011;33994;50.998;5.864;2023-04-29T14:12:27;23.02;;;13.75;;
48203;SDS011;33994;50.998;5.864;2023-04-29T14:15:32;19.85;;;12.77;;
48203;SDS011;33994;50.998;5.864;2023-04-29T14:18:35;22.05;;;13.73;;
48203;SDS011;33994;50.998;5.864;2023-04-29T14:21:38;27.50;;;13.52;;
48203;SDS011;33994;50.998;5.864;2023-04-29T14:24:41;20.20;;;13.43;;
48203;SDS011;33994;50.998;5.864;2023-04-29T14:27:44;18.38;;;12.48;;
48203;SDS011;33994;50.998;5.864;2023-04-29T14:30:49;19.40;;;12.85;;
48203;SDS011;33994;50.998;5.864;2023-04-29T14:33:52;21.95;;;11.77;;
48203;SDS011;33994;50.998;5.864;2023-04-29T14:36:55;23.48;;;12.10;;
48203;SDS011;33994;50.998;5.864;2023-04-29T14:39:59;21.67;;;10.93;;
48203;SDS011;33994;50.998;5.864;2023-04-29T14:43:02;18.85;;;12.25;;
48203;SDS011;33994;50.998;5.864;2023-04-29T14:46:06;20.55;;;12.48;;
48203;SDS011;33994;50.998;5.864;2023-04-29T14:49:10;22.27;;;12.18;;
48203;SDS011;33994;50.998;5.864;2023-04-29T14:52:13;19.95;;;11.38;;
48203;SDS011;33994;50.998;5.864;2023-04-29T14:55:16;20.90;;;11.90;;
48203;SDS011;33994;50.998;5.864;2023-04-29T14:58:19;19.33;;;11.93;;
48203;SDS011;33994;50.998;5.864;2023-04-29T15:01:23;21.52;;;11.55;;
48203;SDS011;33994;50.998;5.864;2023-04-29T15:04:26;20.48;;;12.52;;
48203;SDS011;33994;50.998;5.864;2023-04-29T15:07:29;20.88;;;12.68;;
48203;SDS011;33994;50.998;5.864;2023-04-29T15:10:33;21.38;;;11.95;;
48203;SDS011;33994;50.998;5.864;2023-04-29T15:13:37;19.98;;;12.70;;
48203;SDS011;33994;50.998;5.864;2023-04-29T15:16:41;21.90;;;12.55;;
48203;SDS011;33994;50.998;5.864;2023-04-29T15:19:44;21.98;;;13.18;;
48203;SDS011;33994;50.998;5.864;2023-04-29T15:22:47;22.70;;;13.35;;
48203;SDS011;33994;50.998;5.864;2023-04-29T15:25:51;22.25;;;12.07;;
48203;SDS011;33994;50.998;5.864;2023-04-29T15:28:54;22.10;;;10.73;;
48203;SDS011;33994;50.998;5.864;2023-04-29T15:31:58;23.08;;;14.00;;
48203;SDS011;33994;50.998;5.864;2023-04-29T15:35:02;18.02;;;12.48;;
48203;SDS011;33994;50.998;5.864;2023-04-29T15:38:06;21.73;;;11.93;;
48203;SDS011;33994;50.998;5.864;2023-04-29T15:41:09;17.63;;;12.23;;
48203;SDS011;33994;50.998;5.864;2023-04-29T15:44:12;17.83;;;12.05;;
48203;SDS011;33994;50.998;5.864;2023-04-29T15:47:16;21.70;;;11.30;;
48203;SDS011;33994;50.998;5.864;2023-04-29T15:50:20;18.25;;;11.75;;
48203;SDS011;33994;50.998;5.864;2023-04-29T15:53:23;17.50;;;10.75;;
48203;SDS011;33994;50.998;5.864;2023-04-29T15:56:26;18.98;;;12.45;;
48203;SDS011;33994;50.998;5.864;2023-04-29T15:59:30;18.48;;;11.13;;
48203;SDS011;33994;50.998;5.864;2023-04-29T16:02:34;18.80;;;11.73;;
48203;SDS011;33994;50.998;5.864;2023-04-29T16:05:37;23.10;;;12.40;;
48203;SDS011;33994;50.998;5.864;2023-04-29T16:08:40;18.20;;;10.82;;
48203;SDS011;33994;50.998;5.864;2023-04-29T16:11:44;20.48;;;11.80;;
48203;SDS011;33994;50.998;5.864;2023-04-29T16:14:47;16.90;;;11.40;;
48203;SDS011;33994;50.998;5.864;2023-04-29T16:17:52;18.05;;;11.40;;
48203;SDS011;33994;50.998;5.864;2023-04-29T16:20:55;21.45;;;11.80;;
48203;SDS011;33994;50.998;5.864;2023-04-29T16:23:58;19.08;;;11.35;;
48203;SDS011;33994;50.998;5.864;2023-04-29T16:27:01;19.70;;;11.70;;
48203;SDS011;33994;50.998;5.864;2023-04-29T16:30:05;15.98;;;11.35;;
48203;SDS011;33994;50.998;5.864;2023-04-29T16:33:10;17.98;;;11.27;;
48203;SDS011;33994;50.998;5.864;2023-04-29T16:36:13;20.77;;;11.40;;
48203;SDS011;33994;50.998;5.864;2023-04-29T16:39:16;22.15;;;10.95;;
48203;SDS011;33994;50.998;5.864;2023-04-29T16:42:20;16.38;;;11.48;;
48203;SDS011;33994;50.998;5.864;2023-04-29T16:45:23;17.80;;;11.95;;
48203;SDS011;33994;50.998;5.864;2023-04-29T16:48:28;20.95;;;11.77;;
48203;SDS011;33994;50.998;5.864;2023-04-29T16:51:31;22.02;;;11.43;;
48203;SDS011;33994;50.998;5.864;2023-04-29T16:54:34;15.38;;;10.20;;
48203;SDS011;33994;50.998;5.864;2023-04-29T16:57:38;17.92;;;10.38;;
48203;SDS011;33994;50.998;5.864;2023-04-29T17:00:41;18.58;;;11.80;;
48203;SDS011;33994;50.998;5.864;2023-04-29T17:03:46;19.00;;;10.93;;
48203;SDS011;33994;50.998;5.864;2023-04-29T17:06:49;16.50;;;10.38;;
48203;SDS011;33994;50.998;5.864;2023-04-29T17:09:52;17.08;;;10.65;;
48203;SDS011;33994;50.998;5.864;2023-04-29T17:12:55;15.32;;;10.40;;
48203;SDS011;33994;50.998;5.864;2023-04-29T17:15:59;18.70;;;11.43;;
48203;SDS011;33994;50.998;5.864;2023-04-29T17:19:03;17.27;;;10.70;;
48203;SDS011;33994;50.998;5.864;2023-04-29T17:22:06;16.67;;;10.30;;
48203;SDS011;33994;50.998;5.864;2023-04-29T17:25:09;16.13;;;10.07;;
48203;SDS011;33994;50.998;5.864;2023-04-29T17:28:13;23.05;;;9.15;;
48203;SDS011;33994;50.998;5.864;2023-04-29T17:31:16;18.00;;;10.63;;
48203;SDS011;33994;50.998;5.864;2023-04-29T17:34:20;15.65;;;9.63;;
48203;SDS011;33994;50.998;5.864;2023-04-29T17:37:23;15.48;;;8.85;;
48203;SDS011;33994;50.998;5.864;2023-04-29T17:40:27;12.70;;;8.73;;
48203;SDS011;33994;50.998;5.864;2023-04-29T17:43:30;12.55;;;8.15;;
48203;SDS011;33994;50.998;5.864;2023-04-29T17:46:33;14.05;;;8.88;;
48203;SDS011;33994;50.998;5.864;2023-04-29T17:49:37;18.75;;;10.32;;
48203;SDS011;33994;50.998;5.864;2023-04-29T17:52:44;16.48;;;10.18;;
48203;SDS011;33994;50.998;5.864;2023-04-29T17:55:47;15.90;;;9.80;;
48203;SDS011;33994;50.998;5.864;2023-04-29T17:58:50;13.00;;;8.50;;
48203;SDS011;33994;50.998;5.864;2023-04-29T18:01:53;15.00;;;9.63;;
48203;SDS011;33994;50.998;5.864;2023-04-29T18:04:58;16.48;;;9.20;;